Time;durP1;ratioP1;P1;durP2;ratioP2;P2;SDS_P1;SDS_P2;PMS_P1;PMS_P2;Temp;Humidity;BMP_temperature;BMP_pressure;BME280_temperature;BME280_humidity;BME280_pressure;Samples;Min_cycle;Max_cycle;Signal;HPM_P1;HPM_P2
2024/01/03 00:00:42;;;;;;;4.20;0.90;;;;;;;11.85;78.99;97847.66;7395599;19;20343;-65
2024/01/03 00:03:09;;;;;;;4.25;0.90;;;;;;;11.84;77.89;97851.41;7391844;19;20362;-66
2024/01/03 00:05:38;;;;;;;4.10;1.02;;;;;;;11.93;78.00;97833.16;7396450;19;20364;-66
2024/01/03 00:08:11;;;;;;;3.13;1.10;;;;;;;11.95;77.32;97849.66;7398385;19;20666;-66
2024/01/03 00:10:58;;;;;;;3.38;1.00;;;;;;;12.02;77.04;97859.00;7397021;19;20408;-66
2024/01/03 00:13:33;;;;;;;3.42;1.10;;;;;;;12.08;76.50;97848.41;7395958;19;20329;-65
2024/01/03 00:16:13;;;;;;;3.78;0.90;;;;;;;12.09;75.74;97839.38;7394976;19;20368;-66
2024/01/03 00:18:58;;;;;;;4.53;1.10;;;;;;;12.10;75.79;97854.28;7392226;19;20380;-66
2024/01/03 00:21:27;;;;;;;3.05;0.77;;;;;;;12.13;75.85;97833.28;7393448;19;20404;-66
2024/01/03 00:24:00;;;;;;;3.88;1.05;;;;;;;12.08;75.53;97825.31;7395215;19;20388;-65
2024/01/03 00:26:29;;;;;;;4.32;1.30;;;;;;;12.15;76.54;97841.81;7392771;19;20352;-66
2024/01/03 00:28:57;;;;;;;4.63;1.00;;;;;;;12.10;76.44;97849.75;7394497;19;20407;-66
2024/01/03 00:31:38;;;;;;;5.10;1.00;;;;;;;12.13;76.82;97835.16;7393726;19;20359;-66
2024/01/03 00:34:14;;;;;;;3.93;1.23;;;;;;;12.01;76.36;97817.56;7392676;19;20369;-66
2024/01/03 00:36:41;;;;;;;4.18;1.15;;;;;;;12.05;76.83;97841.75;7394639;19;20369;-66
2024/01/03 00:39:10;;;;;;;3.33;0.98;;;;;;;12.12;76.72;97834.38;7396526;19;20344;-66
2024/01/03 00:41:37;;;;;;;4.82;1.33;;;;;;;12.05;76.32;97828.47;7396409;19;20344;-66
2024/01/03 00:44:03;;;;;;;5.25;1.30;;;;;;;12.07;75.30;97860.91;7387801;19;20824;-66
2024/01/03 00:46:31;;;;;;;5.25;1.20;;;;;;;12.07;75.30;97826.38;7392686;19;20356;-66
2024/01/03 00:48:57;;;;;;;6.28;1.35;;;;;;;12.05;75.33;97844.41;7397051;19;20325;-66
2024/01/03 00:51:24;;;;;;;6.50;1.60;;;;;;;12.04;74.56;97840.16;7391715;19;20336;-66
2024/01/03 00:53:52;;;;;;;6.97;1.60;;;;;;;12.06;74.38;97837.25;7395371;19;20361;-66
2024/01/03 00:56:19;;;;;;;5.75;1.40;;;;;;;12.01;74.35;97846.78;7390039;19;20375;-66
2024/01/03 00:58:46;;;;;;;6.72;1.70;;;;;;;11.94;74.01;97838.22;7397187;19;20400;-66
2024/01/03 01:01:13;;;;;;;5.40;1.80;;;;;;;11.91;74.22;97835.28;7393948;19;20695;-66
2024/01/03 01:03:40;;;;;;;5.78;1.42;;;;;;;11.84;72.48;97868.13;7395880;19;20360;-66
2024/01/03 01:06:07;;;;;;;5.68;1.60;;;;;;;11.84;72.03;97860.16;7390787;19;20481;-66
2024/01/03 01:08:34;;;;;;;6.28;1.40;;;;;;;11.89;71.47;97864.75;7395533;19;20393;-69
2024/01/03 01:11:01;;;;;;;7.15;1.83;;;;;;;11.92;71.62;97836.84;7395269;19;20687;-66
2024/01/03 01:13:28;;;;;;;6.05;1.27;;;;;;;11.90;71.32;97854.91;7393018;19;20370;-66
2024/01/03 01:15:54;;;;;;;4.72;1.30;;;;;;;11.90;71.02;97853.06;7391411;19;20356;-66
2024/01/03 01:18:21;;;;;;;5.85;1.65;;;;;;;11.90;71.06;97849.59;7393586;19;20385;-67
2024/01/03 01:20:48;;;;;;;6.30;1.60;;;;;;;11.90;71.01;97854.91;7396219;19;21019;-66
2024/01/03 01:23:15;;;;;;;6.30;2.00;;;;;;;11.82;71.09;97870.22;7393952;19;20419;-66
2024/01/03 01:25:41;;;;;;;6.03;1.40;;;;;;;11.79;71.52;97886.69;7391533;19;20392;-67
2024/01/03 01:28:08;;;;;;;6.30;1.60;;;;;;;11.75;71.94;97859.03;7392173;19;20332;-67
2024/01/03 01:30:35;;;;;;;6.63;1.55;;;;;;;11.70;72.53;97868.78;7391554;19;20360;-66
2024/01/03 01:33:02;;;;;;;5.35;1.55;;;;;;;11.65;73.46;97853.63;7393629;19;20349;-66
2024/01/03 01:35:29;;;;;;;7.85;1.60;;;;;;;11.54;74.06;97851.91;7393559;19;20356;-66
2024/01/03 01:37:56;;;;;;;6.30;1.70;;;;;;;11.53;74.83;97866.25;7393659;19;20724;-66
2024/01/03 01:40:22;;;;;;;6.90;1.63;;;;;;;11.49;75.58;97865.13;7389476;19;20917;-66
2024/01/03 01:42:49;;;;;;;6.68;1.63;;;;;;;11.37;76.37;97882.00;7390770;19;20453;-66
2024/01/03 01:45:16;;;;;;;6.95;1.75;;;;;;;11.27;76.95;97889.84;7384718;19;20871;-66
2024/01/03 01:47:43;;;;;;;6.38;1.80;;;;;;;11.23;77.37;97873.63;7395134;19;20365;-65
2024/01/03 01:50:10;;;;;;;6.80;1.70;;;;;;;11.12;78.30;97887.03;7392463;19;20393;-66
2024/01/03 01:52:39;;;;;;;6.28;1.52;;;;;;;11.10;78.81;97867.91;7391054;19;20348;-66
2024/01/03 01:55:07;;;;;;;7.75;1.85;;;;;;;11.06;79.67;97893.31;7395399;19;20356;-66
2024/01/03 01:57:35;;;;;;;6.45;1.83;;;;;;;11.04;79.82;97869.69;7392665;19;20352;-66
2024/01/03 02:00:02;;;;;;;7.93;2.00;;;;;;;11.08;79.85;97862.03;7391995;19;20379;-66
2024/01/03 02:02:38;;;;;;;8.13;1.75;;;;;;;11.04;79.70;97911.34;7394153;19;20692;-66
2024/01/03 02:05:06;;;;;;;9.48;2.15;;;;;;;11.08;79.63;97870.00;7389876;19;20396;-66
2024/01/03 02:07:34;;;;;;;7.43;1.92;;;;;;;11.05;79.48;97907.63;7392104;19;20484;-70
2024/01/03 02:10:02;;;;;;;6.60;1.60;;;;;;;11.07;79.04;97879.81;7390645;19;20359;-66
2024/01/03 02:12:29;;;;;;;6.80;1.80;;;;;;;11.09;78.55;97876.91;7392332;19;20443;-66
2024/01/03 02:14:57;;;;;;;6.38;1.75;;;;;;;11.16;78.45;97856.31;7388981;19;20333;-66
2024/01/03 02:17:24;;;;;;;6.70;1.80;;;;;;;11.10;77.77;97830.75;7388978;19;20424;-66
2024/01/03 02:19:51;;;;;;;9.15;2.05;;;;;;;11.06;77.47;97867.59;7390392;19;20320;-66
2024/01/03 02:22:18;;;;;;;10.02;2.60;;;;;;;11.09;77.00;97858.31;7391161;19;20361;-66
2024/01/03 02:24:44;;;;;;;7.70;1.95;;;;;;;11.10;76.90;97866.03;7388240;19;20344;-66
2024/01/03 02:27:11;;;;;;;6.50;1.80;;;;;;;11.08;75.90;97883.25;7394082;19;20349;-66
2024/01/03 02:29:38;;;;;;;7.40;2.00;;;;;;;11.15;75.04;97862.66;7392524;19;20381;-66
2024/01/03 02:32:05;;;;;;;7.68;2.05;;;;;;;11.17;75.20;97900.34;7392456;19;20381;-66
2024/01/03 02:34:32;;;;;;;9.00;1.85;;;;;;;11.23;74.13;97880.78;7388459;19;20336;-66
2024/01/03 02:36:59;;;;;;;7.82;1.95;;;;;;;11.26;73.64;97888.22;7392829;19;20339;-66
2024/01/03 02:39:25;;;;;;;8.60;1.98;;;;;;;11.35;73.10;97856.78;7393079;19;20353;-66
2024/01/03 02:41:52;;;;;;;8.93;1.65;;;;;;;11.40;72.99;97854.16;7392823;19;20789;-66
2024/01/03 02:44:23;;;;;;;6.00;1.60;;;;;;;11.42;72.13;97871.44;7390876;19;20368;-66
2024/01/03 02:46:50;;;;;;;6.47;1.60;;;;;;;11.49;72.04;97892.47;7389841;19;20371;-66
2024/01/03 02:49:16;;;;;;;5.73;1.70;;;;;;;11.57;71.72;97900.00;7391009;19;20352;-66
2024/01/03 02:51:43;;;;;;;6.60;1.83;;;;;;;11.57;71.06;97893.88;7387711;19;20360;-66
2024/01/03 02:54:10;;;;;;;7.35;1.77;;;;;;;11.60;71.08;97885.41;7383511;19;20328;-66
2024/01/03 02:56:39;;;;;;;5.38;1.70;;;;;;;11.61;70.60;97877.19;7384832;19;20882;-66
2024/01/03 02:59:06;;;;;;;6.75;1.65;;;;;;;11.63;71.08;97875.09;7391831;19;20352;-66
2024/01/03 03:01:33;;;;;;;5.97;1.48;;;;;;;11.62;70.68;97907.22;7388512;19;20676;-67
2024/01/03 03:04:00;;;;;;;5.30;1.45;;;;;;;11.64;70.68;97873.25;7388837;19;20395;-67
2024/01/03 03:06:27;;;;;;;6.85;1.58;;;;;;;11.65;70.67;97890.00;7391433;19;20328;-66
2024/01/03 03:08:53;;;;;;;5.80;1.83;;;;;;;11.64;70.92;97875.91;7398358;19;20448;-66
2024/01/03 03:11:38;;;;;;;5.47;1.80;;;;;;;11.58;70.04;97888.34;7395753;19;20348;-66
2024/01/03 03:14:05;;;;;;;5.57;1.35;;;;;;;11.60;69.92;97888.06;7396834;19;20344;-66
2024/01/03 03:16:31;;;;;;;5.65;1.60;;;;;;;11.64;70.57;97875.91;7396424;19;20371;-66
2024/01/03 03:18:58;;;;;;;5.55;1.60;;;;;;;11.65;70.17;97885.47;7398957;19;20337;-66
2024/01/03 03:21:25;;;;;;;6.10;1.42;;;;;;;11.66;70.14;97887.06;7397871;19;20388;-66
2024/01/03 03:23:51;;;;;;;7.38;1.70;;;;;;;11.67;70.15;97882.56;7394600;19;20864;-66
2024/01/03 03:26:18;;;;;;;7.85;1.90;;;;;;;11.65;69.67;97967.78;7398324;19;20346;-66
2024/01/03 03:28:45;;;;;;;6.90;1.77;;;;;;;11.65;69.64;97930.63;7397091;19;20366;-66
2024/01/03 03:31:11;;;;;;;6.03;1.83;;;;;;;11.64;69.14;97897.13;7398467;19;20372;-67
2024/01/03 03:33:39;;;;;;;7.38;1.60;;;;;;;11.72;69.45;97912.63;7398710;19;20763;-67
2024/01/03 03:36:13;;;;;;;5.68;1.48;;;;;;;11.71;69.35;97886.31;7397082;19;20360;-67
2024/01/03 03:38:40;;;;;;;7.68;1.75;;;;;;;11.65;68.41;97882.81;7395399;19;20358;-67
2024/01/03 03:41:11;;;;;;;8.05;2.05;;;;;;;11.71;68.46;97905.72;7398845;19;20741;-67
2024/01/03 03:43:39;;;;;;;6.25;1.48;;;;;;;11.67;67.16;97907.28;7395878;19;20350;-66
2024/01/03 03:46:07;;;;;;;6.83;1.90;;;;;;;11.77;67.67;97912.69;7392878;19;20488;-67
2024/01/03 03:48:33;;;;;;;6.22;1.50;;;;;;;11.74;66.29;97883.97;7398334;19;20341;-67
2024/01/03 03:51:03;;;;;;;6.07;1.60;;;;;;;11.77;66.80;97920.66;7396690;19;20502;-67
2024/01/03 03:53:29;;;;;;;7.65;2.30;;;;;;;11.80;66.73;97903.41;7397371;19;20357;-66
2024/01/03 03:55:56;;;;;;;6.38;1.77;;;;;;;11.74;66.99;97942.38;7393594;19;20341;-67
2024/01/03 03:58:23;;;;;;;9.30;2.10;;;;;;;11.74;67.46;97899.91;7395741;19;20348;-66
2024/01/03 04:00:50;;;;;;;7.25;1.88;;;;;;;11.74;68.13;97910.53;7396490;19;20356;-67
2024/01/03 04:03:17;;;;;;;5.65;1.77;;;;;;;11.68;68.88;97914.16;7394703;19;20688;-67
2024/01/03 04:05:44;;;;;;;6.10;2.00;;;;;;;11.67;68.86;97919.72;7393961;19;20693;-67
2024/01/03 04:08:10;;;;;;;6.88;1.92;;;;;;;11.69;68.81;97923.75;7395067;19;20351;-67
2024/01/03 04:10:38;;;;;;;7.27;2.00;;;;;;;11.68;69.03;97956.66;7399429;19;20975;-67
2024/01/03 04:13:04;;;;;;;7.78;1.80;;;;;;;11.67;68.57;97931.19;7395046;19;20360;-66
2024/01/03 04:15:31;;;;;;;5.63;1.70;;;;;;;11.64;69.06;97926.34;7395269;19;20435;-67
2024/01/03 04:17:58;;;;;;;6.88;1.88;;;;;;;11.56;70.41;97956.81;7398150;19;20809;-67
2024/01/03 04:20:25;;;;;;;6.97;1.90;;;;;;;11.45;71.05;97927.72;7395811;19;20381;-67
2024/01/03 04:22:51;;;;;;;5.90;1.63;;;;;;;11.35;70.84;97955.78;7393422;19;20344;-67
2024/01/03 04:25:18;;;;;;;7.28;1.80;;;;;;;11.30;71.09;97968.97;7391548;19;20856;-67
2024/01/03 04:27:45;;;;;;;8.23;1.83;;;;;;;11.29;71.52;97940.84;7397476;19;20349;-67
2024/01/03 04:30:12;;;;;;;6.90;1.80;;;;;;;11.30;71.06;97955.69;7395044;19;20380;-67
2024/01/03 04:32:38;;;;;;;6.20;1.83;;;;;;;11.31;71.69;97922.81;7396190;19;20389;-67
2024/01/03 04:35:05;;;;;;;4.75;1.60;;;;;;;11.28;72.74;97931.25;7393934;19;20887;-67
2024/01/03 04:37:33;;;;;;;6.22;2.00;;;;;;;11.25;73.72;97936.28;7393410;19;20844;-67
2024/01/03 04:40:00;;;;;;;6.72;1.80;;;;;;;11.23;74.24;97947.13;7395501;19;20425;-67
2024/01/03 04:42:26;;;;;;;6.63;1.80;;;;;;;11.18;74.94;97949.72;7394947;19;20642;-67
2024/01/03 04:44:53;;;;;;;8.98;2.10;;;;;;;11.14;75.54;97960.00;7392416;19;20408;-66
2024/01/03 04:47:20;;;;;;;6.93;1.85;;;;;;;11.11;77.89;97954.38;7397474;19;20371;-65
2024/01/03 04:49:47;;;;;;;8.25;1.98;;;;;;;11.00;79.07;97951.59;7394484;19;20844;-65
2024/01/03 04:52:14;;;;;;;6.73;1.80;;;;;;;10.90;79.74;97967.41;7395234;19;20363;-65
2024/01/03 04:54:40;;;;;;;7.32;2.10;;;;;;;10.76;81.14;97995.28;7392412;19;20352;-65
2024/01/03 04:57:07;;;;;;;7.63;2.50;;;;;;;10.68;82.91;97985.09;7396331;19;20361;-65
2024/01/03 04:59:35;;;;;;;9.07;2.40;;;;;;;10.48;85.22;97994.34;7394100;19;20364;-66
2024/01/03 05:02:02;;;;;;;9.98;2.58;;;;;;;10.35;86.56;97999.97;7394491;19;20371;-69
2024/01/03 05:04:28;;;;;;;9.88;2.40;;;;;;;10.24;88.24;97976.94;7395238;19;20905;-69
2024/01/03 05:06:56;;;;;;;10.63;2.83;;;;;;;10.08;90.00;97963.44;7391203;19;20342;-69
2024/01/03 05:09:23;;;;;;;7.75;2.30;;;;;;;9.93;90.62;97987.00;7393385;19;20343;-68
2024/01/03 05:11:50;;;;;;;9.38;2.58;;;;;;;9.80;91.29;97988.09;7394495;19;20360;-68
2024/01/03 05:14:17;;;;;;;8.63;2.40;;;;;;;9.70;91.61;97986.03;7390770;19;20369;-67
2024/01/03 05:16:44;;;;;;;7.35;2.08;;;;;;;9.59;92.30;97971.81;7394143;19;20774;-68
2024/01/03 05:19:11;;;;;;;8.80;2.40;;;;;;;9.58;92.45;97974.69;7390678;19;20364;-67
2024/01/03 05:21:38;;;;;;;7.10;2.58;;;;;;;9.53;92.14;97971.94;7391940;19;20317;-67
2024/01/03 05:24:05;;;;;;;9.75;2.40;;;;;;;9.52;91.49;97975.63;7391884;19;20367;-67
2024/01/03 05:26:32;;;;;;;8.48;2.38;;;;;;;9.55;91.64;97985.75;7392969;19;20364;-67
2024/01/03 05:28:58;;;;;;;8.45;2.15;;;;;;;9.56;90.77;97987.34;7391169;19;20369;-66
2024/01/03 05:31:25;;;;;;;6.32;1.92;;;;;;;9.56;90.80;97985.53;7391756;19;20344;-66
2024/01/03 05:33:52;;;;;;;7.68;2.28;;;;;;;9.58;91.04;97987.91;7391675;19;20373;-66
2024/01/03 05:36:18;;;;;;;5.57;1.70;;;;;;;9.61;90.67;97986.66;7390354;19;20385;-66
2024/01/03 05:38:45;;;;;;;9.57;2.25;;;;;;;9.64;90.54;97975.59;7392689;19;20380;-67
2024/01/03 05:41:12;;;;;;;7.27;1.90;;;;;;;9.64;89.86;97986.97;7392058;19;20422;-66
2024/01/03 05:43:39;;;;;;;9.90;2.05;;;;;;;9.68;89.20;97998.72;7396161;19;20665;-66
2024/01/03 05:46:05;;;;;;;6.50;2.00;;;;;;;9.75;88.22;97988.81;7391567;19;20361;-66
2024/01/03 05:48:32;;;;;;;6.15;1.73;;;;;;;9.83;88.01;98023.88;7395434;19;20391;-66
2024/01/03 05:50:59;;;;;;;7.70;2.00;;;;;;;9.93;86.94;98018.78;7391942;19;20348;-66
2024/01/03 05:53:26;;;;;;;9.03;1.90;;;;;;;10.01;86.34;97997.22;7391214;19;20734;-66
2024/01/03 05:55:52;;;;;;;6.23;1.80;;;;;;;10.10;85.96;97995.78;7389328;19;20876;-66
2024/01/03 05:58:19;;;;;;;5.07;1.63;;;;;;;10.16;85.36;98007.28;7392121;19;20332;-66
2024/01/03 06:00:46;;;;;;;6.30;1.52;;;;;;;10.23;84.60;98025.69;7390982;19;20361;-66
2024/01/03 06:03:12;;;;;;;5.90;1.73;;;;;;;10.24;84.16;98001.56;7392607;19;20344;-65
2024/01/03 06:05:39;;;;;;;6.35;1.63;;;;;;;10.28;83.96;98021.25;7391770;19;20368;-66
2024/01/03 06:08:06;;;;;;;5.95;1.58;;;;;;;10.31;84.83;98027.97;7394485;19;20430;-65
2024/01/03 06:10:33;;;;;;;5.65;1.60;;;;;;;10.29;85.76;98006.19;7389111;19;20345;-65
2024/01/03 06:13:00;;;;;;;7.25;1.80;;;;;;;10.28;86.43;98009.84;7393456;19;20364;-65
2024/01/03 06:15:27;;;;;;;6.50;1.80;;;;;;;10.23;87.59;98049.53;7391320;19;20356;-65
2024/01/03 06:17:54;;;;;;;6.37;2.00;;;;;;;10.18;88.27;98016.59;7394100;19;20362;-64
2024/01/03 06:20:20;;;;;;;9.00;2.20;;;;;;;10.05;89.58;98022.19;7393829;19;20368;-64
2024/01/03 06:22:50;;;;;;;6.87;1.90;;;;;;;9.98;90.35;98024.16;7393461;19;20429;-65
2024/01/03 06:25:16;;;;;;;10.00;2.70;;;;;;;9.93;90.86;98024.06;7391516;19;20383;-64
2024/01/03 06:27:43;;;;;;;6.70;2.20;;;;;;;9.90;90.83;98027.19;7392647;19;20377;-64
2024/01/03 06:30:10;;;;;;;7.30;2.13;;;;;;;9.87;90.84;98025.03;7393364;19;20381;-64
2024/01/03 06:32:37;;;;;;;9.27;2.05;;;;;;;9.84;91.90;98025.47;7393851;19;20349;-65
2024/01/03 06:35:05;;;;;;;7.30;2.17;;;;;;;9.77;91.24;98030.91;7387978;19;20388;-65
2024/01/03 06:37:32;;;;;;;9.93;2.67;;;;;;;9.76;91.13;98027.47;7390292;19;20349;-66
2024/01/03 06:39:58;;;;;;;6.55;2.17;;;;;;;9.79;91.49;98034.91;7390542;19;20340;-65
2024/01/03 06:42:25;;;;;;;8.77;2.30;;;;;;;9.78;91.38;98028.03;7397604;19;20482;-65
2024/01/03 06:44:53;;;;;;;6.43;2.05;;;;;;;9.78;91.17;98037.81;7401190;19;20348;-65
2024/01/03 06:47:20;;;;;;;7.10;1.88;;;;;;;9.80;89.71;98055.06;7397577;19;20386;-65
2024/01/03 06:49:47;;;;;;;8.93;2.28;;;;;;;9.87;89.90;98048.84;7400592;19;20360;-65
2024/01/03 06:52:14;;;;;;;10.18;2.13;;;;;;;9.87;90.27;98040.91;7399419;19;20364;-65
2024/01/03 06:54:40;;;;;;;9.35;2.38;;;;;;;9.84;90.23;98041.34;7398865;19;20915;-67
2024/01/03 06:57:07;;;;;;;7.63;2.00;;;;;;;9.80;91.12;98025.16;7400120;19;20690;-67
2024/01/03 06:59:35;;;;;;;6.13;2.00;;;;;;;9.74;90.42;98053.38;7399559;19;20360;-67
2024/01/03 07:02:03;;;;;;;7.47;2.40;;;;;;;9.72;91.38;98038.75;7400599;19;20388;-67
2024/01/03 07:04:30;;;;;;;9.43;2.50;;;;;;;9.68;90.31;98033.13;7394829;19;20364;-67
2024/01/03 07:06:57;;;;;;;7.70;2.30;;;;;;;9.67;90.38;98039.47;7395049;19;20384;-66
2024/01/03 07:09:23;;;;;;;10.40;2.30;;;;;;;9.68;89.94;98041.06;7398241;19;20356;-66
2024/01/03 07:11:50;;;;;;;8.07;2.13;;;;;;;9.68;89.18;98054.31;7398677;19;20912;-66
2024/01/03 07:14:17;;;;;;;9.13;2.13;;;;;;;9.71;87.72;98096.19;7400276;19;20348;-65
2024/01/03 07:16:44;;;;;;;7.45;1.70;;;;;;;9.77;86.55;98071.41;7398474;19;20369;-65
2024/01/03 07:19:15;;;;;;;8.40;2.20;;;;;;;9.85;86.13;98106.53;7398817;19;20406;-65
2024/01/03 07:21:42;;;;;;;6.15;1.50;;;;;;;9.93;84.88;98088.44;7399143;19;20349;-64
2024/01/03 07:24:10;;;;;;;7.20;1.98;;;;;;;10.01;85.05;98068.72;7399127;19;20747;-64
2024/01/03 07:26:37;;;;;;;7.57;1.60;;;;;;;10.07;84.71;98115.44;7392205;19;20381;-65
2024/01/03 07:29:03;;;;;;;7.32;2.03;;;;;;;10.12;84.59;98107.59;7399222;19;20367;-65
2024/01/03 07:31:30;;;;;;;6.90;1.97;;;;;;;10.18;82.96;98111.97;7397349;19;20413;-64
2024/01/03 07:33:57;;;;;;;6.65;1.92;;;;;;;10.23;83.40;98086.59;7399416;19;20434;-64
2024/01/03 07:36:24;;;;;;;6.47;1.73;;;;;;;10.25;81.98;98114.47;7398734;19;20831;-64
2024/01/03 07:38:51;;;;;;;5.40;1.42;;;;;;;10.33;81.74;98102.72;7397225;19;20892;-64
2024/01/03 07:41:21;;;;;;;7.05;1.85;;;;;;;10.34;81.56;98083.94;7397267;19;20349;-64
2024/01/03 07:43:48;;;;;;;4.78;1.50;;;;;;;10.42;81.43;98080.09;7397659;19;20332;-65
2024/01/03 07:46:17;;;;;;;6.72;1.80;;;;;;;10.44;81.32;98078.00;7395592;19;20724;-65
2024/01/03 07:48:44;;;;;;;5.25;1.50;;;;;;;10.52;80.97;98090.88;7396393;19;20699;-65
2024/01/03 07:51:11;;;;;;;7.15;1.63;;;;;;;10.55;81.08;98086.94;7397573;19;20392;-65
2024/01/03 07:53:38;;;;;;;6.18;1.58;;;;;;;10.57;80.64;98090.97;7394722;19;20365;-65
2024/01/03 07:56:08;;;;;;;6.90;1.65;;;;;;;10.61;80.63;98094.75;7398357;19;20328;-65
2024/01/03 07:58:35;;;;;;;4.93;1.45;;;;;;;10.67;80.88;98086.88;7395310;19;20859;-65
2024/01/03 08:01:02;;;;;;;7.07;1.83;;;;;;;10.67;80.76;98094.81;7396104;19;20369;-65
2024/01/03 08:03:29;;;;;;;6.28;1.70;;;;;;;10.68;80.74;98110.50;7397361;19;20356;-65
2024/01/03 08:05:56;;;;;;;7.25;1.67;;;;;;;10.69;80.70;98122.72;7393993;19;20856;-65
2024/01/03 08:08:24;;;;;;;6.18;1.70;;;;;;;10.69;80.32;98090.09;7398322;19;20345;-65
2024/01/03 08:10:51;;;;;;;8.48;1.73;;;;;;;10.73;80.49;98094.69;7398971;19;20367;-65
2024/01/03 08:13:17;;;;;;;5.78;1.63;;;;;;;10.75;80.63;98078.53;7394793;19;20880;-65
2024/01/03 08:15:44;;;;;;;6.15;1.85;;;;;;;10.78;80.88;98093.97;7396184;19;20374;-65
2024/01/03 08:18:11;;;;;;;7.38;1.95;;;;;;;10.77;80.48;98100.31;7395536;19;20379;-65
2024/01/03 08:20:38;;;;;;;6.38;1.70;;;;;;;10.77;80.06;98087.03;7395874;19;20352;-65
2024/01/03 08:23:05;;;;;;;8.70;1.98;;;;;;;10.80;80.18;98103.28;7394503;19;20339;-65
2024/01/03 08:25:31;;;;;;;6.28;1.90;;;;;;;10.81;79.78;98082.88;7393545;19;20372;-65
2024/01/03 08:27:58;;;;;;;6.43;1.90;;;;;;;10.81;79.61;98082.88;7394973;19;20385;-65
2024/01/03 08:30:25;;;;;;;6.97;1.70;;;;;;;10.87;79.25;98094.38;7396633;19;20348;-65
2024/01/03 08:32:52;;;;;;;7.23;1.97;;;;;;;10.88;79.05;98088.84;7396530;19;20336;-65
2024/01/03 08:35:18;;;;;;;10.13;1.92;;;;;;;10.90;78.82;98089.41;7394103;19;20324;-65
2024/01/03 08:37:45;;;;;;;7.95;1.88;;;;;;;10.94;78.32;98098.44;7396892;19;20341;-65
2024/01/03 08:40:12;;;;;;;6.38;1.60;;;;;;;10.96;78.40;98106.19;7395567;19;20360;-65
2024/01/03 08:42:39;;;;;;;5.95;1.50;;;;;;;10.93;78.15;98123.38;7396701;19;20666;-65
2024/01/03 08:45:06;;;;;;;4.97;1.33;;;;;;;11.01;78.29;98088.50;7395789;19;20688;-65
2024/01/03 08:47:33;;;;;;;7.75;1.98;;;;;;;11.00;78.23;98089.53;7394976;19;20883;-65
2024/01/03 08:50:00;;;;;;;5.78;1.50;;;;;;;10.96;77.69;98125.53;7394200;19;20316;-65
2024/01/03 08:52:27;;;;;;;5.75;1.40;;;;;;;11.02;77.67;98095.41;7393933;19;20436;-65
2024/01/03 08:54:53;;;;;;;7.50;1.60;;;;;;;11.04;77.52;98103.13;7392996;19;20343;-65
2024/01/03 08:57:20;;;;;;;4.47;1.30;;;;;;;11.06;78.07;98106.34;7394701;19;20369;-64
2024/01/03 08:59:47;;;;;;;5.55;1.40;;;;;;;11.07;77.78;98117.75;7394637;19;20339;-64
2024/01/03 09:02:13;;;;;;;5.88;1.52;;;;;;;11.07;77.81;98115.94;7393402;19;20367;-64
2024/01/03 09:04:40;;;;;;;5.50;1.23;;;;;;;11.09;77.86;98110.34;7391242;19;20357;-64
2024/01/03 09:07:07;;;;;;;4.57;1.08;;;;;;;11.11;78.02;98114.38;7392068;19;21242;-64
2024/01/03 09:09:34;;;;;;;4.15;1.10;;;;;;;11.11;77.85;98106.41;7395696;19;20927;-64
2024/01/03 09:12:00;;;;;;;3.67;0.90;;;;;;;11.13;77.82;98106.19;7397901;19;20715;-65
2024/01/03 09:14:27;;;;;;;3.10;0.98;;;;;;;11.06;77.06;98111.66;7392588;19;20347;-64
2024/01/03 09:16:54;;;;;;;2.95;0.90;;;;;;;11.07;76.97;98120.41;7392217;19;20439;-64
2024/01/03 09:19:21;;;;;;;3.97;1.10;;;;;;;11.09;77.21;98115.66;7393450;19;20440;-64
2024/01/03 09:21:48;;;;;;;3.55;0.98;;;;;;;11.04;76.48;98099.69;7395934;19;20324;-64
2024/01/03 09:24:16;;;;;;;4.03;1.00;;;;;;;10.99;75.77;98114.47;7392502;19;20365;-64
2024/01/03 09:26:43;;;;;;;4.25;1.00;;;;;;;11.02;76.34;98100.72;7392717;19;20352;-64
2024/01/03 09:29:10;;;;;;;2.83;0.95;;;;;;;11.01;76.49;98108.94;7394003;19;20368;-64
2024/01/03 09:31:42;;;;;;;4.38;1.05;;;;;;;11.06;76.37;98097.59;7393892;19;20626;-64
2024/01/03 09:34:09;;;;;;;2.73;0.87;;;;;;;11.01;76.24;98111.59;7392891;19;20887;-64
2024/01/03 09:36:36;;;;;;;2.40;0.90;;;;;;;11.00;75.90;98129.31;7393590;19;20356;-64
2024/01/03 09:39:02;;;;;;;4.00;1.13;;;;;;;11.06;75.96;98108.19;7393773;19;20344;-64
2024/01/03 09:41:31;;;;;;;3.88;0.90;;;;;;;11.06;76.16;98113.50;7392536;19;20336;-64
2024/01/03 09:43:58;;;;;;;5.05;1.25;;;;;;;11.12;76.22;98123.16;7393896;19;20359;-64
2024/01/03 09:46:24;;;;;;;3.88;0.90;;;;;;;11.15;76.19;98109.41;7390759;19;20360;-64
2024/01/03 09:48:52;;;;;;;3.45;0.90;;;;;;;11.12;76.21;98115.19;7391215;19;20328;-64
2024/01/03 09:51:19;;;;;;;4.72;1.00;;;;;;;11.16;75.88;98111.81;7391507;19;20352;-64
2024/01/03 09:53:50;;;;;;;3.65;0.93;;;;;;;11.18;75.81;98115.03;7393971;19;20761;-64
2024/01/03 09:56:20;;;;;;;2.85;0.70;;;;;;;11.23;76.07;98123.06;7392533;19;22436;-64
2024/01/03 09:58:47;;;;;;;3.30;0.90;;;;;;;11.19;75.97;98142.38;7389822;19;20846;-64
2024/01/03 10:01:14;;;;;;;2.92;1.10;;;;;;;11.22;76.54;98116.16;7393064;19;20419;-64
2024/01/03 10:03:40;;;;;;;3.27;1.07;;;;;;;11.22;77.21;98120.66;7391434;19;20834;-64
2024/01/03 10:06:11;;;;;;;2.63;0.70;;;;;;;11.20;77.04;98131.53;7394311;19;20382;-64
2024/01/03 10:08:59;;;;;;;2.95;0.90;;;;;;;11.14;77.13;98110.47;7393749;19;20706;-64
2024/01/03 10:11:27;;;;;;;3.63;0.68;;;;;;;11.13;77.75;98124.75;7394736;19;20420;-64
2024/01/03 10:13:55;;;;;;;3.85;0.98;;;;;;;11.11;78.60;98135.59;7388445;19;20324;-64
2024/01/03 10:16:26;;;;;;;2.88;0.70;;;;;;;11.08;80.46;98136.09;7391279;19;20376;-64
2024/01/03 10:19:13;;;;;;;2.47;0.80;;;;;;;10.99;83.09;98143.66;7393306;19;20336;-64
2024/01/03 10:21:54;;;;;;;2.80;0.80;;;;;;;10.82;84.23;98130.38;7393480;19;20344;-64
2024/01/03 10:24:25;;;;;;;3.35;1.00;;;;;;;10.73;84.78;98138.94;7389475;19;20328;-63
2024/01/03 10:26:53;;;;;;;3.13;0.90;;;;;;;10.56;86.11;98147.69;7390163;19;20405;-64
2024/01/03 10:29:21;;;;;;;1.92;0.70;;;;;;;10.32;87.48;98154.09;7389365;19;20865;-65
2024/01/03 10:31:49;;;;;;;2.73;1.00;;;;;;;10.15;88.29;98159.31;7390440;19;20433;-65
2024/01/03 10:34:23;;;;;;;1.65;0.50;;;;;;;9.92;89.20;98170.75;7393634;19;20382;-66
2024/01/03 10:36:53;;;;;;;2.45;0.60;;;;;;;9.80;90.44;98147.75;7392823;19;20497;-66
2024/01/03 10:39:20;;;;;;;1.90;0.60;;;;;;;9.71;91.05;98151.78;7392723;19;20408;-65
2024/01/03 10:41:49;;;;;;;3.28;0.68;;;;;;;9.73;91.42;98172.72;7389479;19;20887;-65
2024/01/03 10:44:17;;;;;;;2.10;0.70;;;;;;;9.71;92.10;98165.03;7390460;19;20349;-65
2024/01/03 10:46:45;;;;;;;1.13;0.43;;;;;;;9.68;91.99;98164.69;7390310;19;20439;-65
2024/01/03 10:49:13;;;;;;;1.27;0.60;;;;;;;9.65;92.28;98165.13;7392009;19;20345;-65
2024/01/03 10:51:43;;;;;;;1.37;0.50;;;;;;;9.72;92.50;98161.34;7389125;19;20410;-65
2024/01/03 10:54:16;;;;;;;1.87;0.53;;;;;;;9.74;92.32;98175.16;7385854;19;20372;-65
2024/01/03 10:56:52;;;;;;;1.90;0.70;;;;;;;9.79;91.80;98162.00;7389993;19;20340;-64
2024/01/03 10:59:26;;;;;;;1.88;0.70;;;;;;;9.83;91.25;98166.84;7387806;19;20360;-65
2024/01/03 11:01:58;;;;;;;1.88;0.60;;;;;;;9.86;91.35;98155.78;7388718;19;20410;-64
2024/01/03 11:04:43;;;;;;;1.45;0.40;;;;;;;9.83;92.21;98178.25;7387471;19;20409;-64
2024/01/03 11:07:31;;;;;;;1.75;0.55;;;;;;;9.91;92.00;98175.25;7390109;19;20369;-63
2024/01/03 11:09:58;;;;;;;3.10;0.60;;;;;;;9.98;92.19;98170.63;7394480;19;20357;-63
2024/01/03 11:12:28;;;;;;;2.30;0.70;;;;;;;10.03;91.60;98172.59;7393412;19;20364;-63
2024/01/03 11:15:24;;;;;;;2.63;0.60;;;;;;;10.03;91.15;98177.88;7390382;19;20932;-64
2024/01/03 11:18:08;;;;;;;2.60;0.73;;;;;;;10.02;90.94;98186.84;7392272;19;20414;-64
2024/01/03 11:20:36;;;;;;;4.03;1.00;;;;;;;10.05;90.72;98181.09;7390020;19;20404;-64
2024/01/03 11:23:04;;;;;;;3.00;0.95;;;;;;;10.10;90.90;98181.19;7389132;19;20381;-64
2024/01/03 11:25:48;;;;;;;2.95;0.80;;;;;;;10.12;90.74;98196.88;7385336;19;20364;-63
2024/01/03 11:28:31;;;;;;;3.58;1.00;;;;;;;10.18;90.19;98180.84;7394350;19;20389;-63
2024/01/03 11:31:00;;;;;;;2.78;0.75;;;;;;;10.23;89.48;98205.84;7396679;19;20368;-63
2024/01/03 11:33:30;;;;;;;3.47;1.00;;;;;;;10.33;89.94;98182.22;7395711;19;20379;-63
2024/01/03 11:35:58;;;;;;;3.53;0.90;;;;;;;10.38;88.71;98187.63;7397741;19;20364;-63
2024/01/03 11:38:44;;;;;;;2.92;1.02;;;;;;;10.38;87.61;98201.66;7395959;19;20871;-63